Marion, OH

3:30 PM EDT on July 02, 2015 (GMT -0400)
Eagle Creek | | Change Station
CLOSE
Current Station
Personal Weather Station
Location: Marion, OH
Elevation: 942 ft
Nearby Weather Stations

Elev 942 ft 40.55 °N, 83.16 °W | Updated 6 minutes ago

Overcast
Overcast
73.4 °F
Feels Like 76 °F
N
1.7
Wind Variable Wind from NNE

Today
High -- | Low -- °F
--% Chance of Precip.
Yesterday
High -- | Low -- °F
Precip. -- in
6:05 AM 9:06 PM
Full, 99% visible
Pressure 29.95 in
Visibility 8.0 miles
Clouds Mostly Cloudy 3300 ft
Overcast 4100 ft
Heat Index 76 °F
Dew Point 63 °F
Humidity 69%
Rainfall 0.00 in
Snow Depth Not available.
UV 3 out of 12
Pollen 4.00 out of 12
Air Quality Not available.
Flu Activity Not available.
METAR KMNN 021853Z AUTO 04007KT 8SM BKN033 OVC041 22/15 A2996 RMK AO2 SLP142 T02220150 TSNO

More Conditions Fewer Conditions

Pressure 29.95 in
Visibility 8.0 miles
Clouds Mostly Cloudy 3300 ft
Overcast 4100 ft
Heat Index 76 °F
Dew Point 63 °F
Humidity 69%
Rainfall 0.00 in
Snow Depth Not available.
UV 3 out of 12
Pollen 4.00 out of 12
Air Quality Not available.
Flu Activity Not available.
METAR KMNN 021853Z AUTO 04007KT 8SM BKN033 OVC041 22/15 A2996 RMK AO2 SLP142 T02220150 TSNO

More Conditions Fewer Conditions

10-Day Weather Forecast

×

Almanac

Astronomy

Jul. 02, 2015 Rise Set
Actual Time
Civil Twilight
Nautical Twilight
Astronomical Twilight
Moon
Length of Visible Light
Length of Day
Tomorrow will be .
, % of the Moon is Illuminated

Today's Extremes

State Highs State Lows

Community

WunderPhotos

Upload Photos

1,834,523 photos uploaded!

WunderBlogs® & News

Nearby

Air Quality

  Air Quality AQ Index Pollutant
Not available.

Snow Depth

Station Depth Elevation

Earthquake Activity

City Distance Mag. Time & Date
Minimum magnitude displayed is 2.5.

Coastal Water Temperatures

Place Temperature

Stations

Nearby Weather Stations

Station Location Temp. Windchill Dew Point Humidity Wind Precip. Elev Updated Type